createdAt,value
2023-06-21T00:00:47.595Z,98323.56
2023-06-21T00:05:56.363Z,98322.78
2023-06-21T00:11:05.282Z,98325.94
2023-06-21T00:16:11.158Z,98337.16
2023-06-21T00:21:21.273Z,98326.72
2023-06-21T00:26:27.534Z,98341.41
2023-06-21T00:31:33.951Z,98321.66
2023-06-21T00:36:43.200Z,98317.81
2023-06-21T00:41:49.419Z,98339.84
2023-06-21T00:46:56.702Z,98328.22
2023-06-21T00:52:07.542Z,98328.25
2023-06-21T00:57:13.502Z,98335.22
2023-06-21T01:02:19.345Z,98339.84
2023-06-21T01:07:40.209Z,98367.28
2023-06-21T01:12:59.868Z,98457.25
2023-06-21T01:18:07.885Z,98412.66
2023-06-21T01:23:33.437Z,98420.47
2023-06-21T01:29:15.821Z,98453.75
2023-06-21T01:34:22.429Z,98472.22
2023-06-21T01:39:31.059Z,98475.34
2023-06-21T01:44:39.486Z,98470.00
2023-06-21T01:49:46.598Z,98480.06
2023-06-21T01:54:52.212Z,98474.69
2023-06-21T02:00:00.662Z,98476.09
2023-06-21T02:05:07.118Z,98477.59
2023-06-21T02:10:13.857Z,98483.88
2023-06-21T02:15:24.289Z,98474.97
2023-06-21T02:20:30.690Z,98476.97
2023-06-21T02:25:38.165Z,98453.69
2023-06-21T02:30:47.854Z,98460.34
2023-06-21T02:35:53.406Z,98454.47
2023-06-21T02:40:59.188Z,98458.69
2023-06-21T02:46:10.493Z,98456.59
2023-06-21T02:51:15.997Z,98449.13
2023-06-21T02:56:21.834Z,98467.34
2023-06-21T03:01:30.099Z,98483.75
2023-06-21T03:06:35.561Z,98488.78
2023-06-21T03:11:43.231Z,98498.06
2023-06-21T03:16:53.551Z,98494.97
2023-06-21T03:21:59.709Z,98511.59
2023-06-21T03:27:08.191Z,98521.25
2023-06-21T03:32:16.803Z,98511.56
2023-06-21T03:37:26.357Z,98505.53
2023-06-21T03:42:32.141Z,98511.72
2023-06-21T03:47:45.535Z,98501.00
2023-06-21T03:52:52.962Z,98515.16
2023-06-21T03:57:59.005Z,98522.53
2023-06-21T04:03:07.333Z,98523.66
2023-06-21T04:08:13.911Z,98533.00
2023-06-21T04:13:21.038Z,98533.81
2023-06-21T04:18:29.254Z,98537.31
2023-06-21T04:23:37.233Z,98544.34
2023-06-21T04:28:42.638Z,98552.19
2023-06-21T04:33:53.215Z,98566.53
2023-06-21T04:38:58.761Z,98577.41
2023-06-21T04:44:05.684Z,98573.53
2023-06-21T04:49:13.989Z,98575.50
2023-06-21T04:54:24.306Z,98575.50
2023-06-21T04:59:31.456Z,98583.66
2023-06-21T05:04:39.922Z,98585.56
2023-06-21T05:09:46.177Z,98585.47
2023-06-21T05:14:52.111Z,98571.78
2023-06-21T05:20:05.426Z,98583.38
2023-06-21T05:25:11.512Z,98566.84
2023-06-21T05:30:18.208Z,98575.06
2023-06-21T05:35:29.491Z,98583.16
2023-06-21T05:40:41.379Z,98574.53
2023-06-21T05:45:49.896Z,98583.69
2023-06-21T05:51:04.017Z,98598.84
2023-06-21T06:01:40.774Z,98603.91
2023-06-21T06:06:54.055Z,98606.56
2023-06-21T06:12:01.729Z,98616.13
2023-06-21T06:17:10.220Z,98618.13
2023-06-21T06:22:20.429Z,98628.91
2023-06-21T06:27:29.838Z,98626.84
2023-06-21T06:32:44.689Z,98638.03
2023-06-21T06:37:55.845Z,98636.09
2023-06-21T06:43:01.339Z,98656.81
2023-06-21T06:48:10.905Z,98663.50
2023-06-21T06:53:19.853Z,98679.72
2023-06-21T06:58:25.972Z,98691.28
2023-06-21T07:03:32.184Z,98691.47
2023-06-21T07:08:49.259Z,98710.75
2023-06-21T07:13:59.131Z,98695.75
2023-06-21T07:19:05.018Z,98703.06
2023-06-21T07:24:16.511Z,98705.00
2023-06-21T07:29:26.572Z,98710.06
2023-06-21T07:34:33.294Z,98715.13
2023-06-21T07:39:53.649Z,98717.66
2023-06-21T07:45:00.316Z,98725.38
2023-06-21T07:50:21.835Z,98728.72
2023-06-21T07:55:31.227Z,98736.38
2023-06-21T08:00:41.479Z,98733.88
2023-06-21T08:05:47.519Z,98735.13
2023-06-21T08:10:57.572Z,98747.19
2023-06-21T08:16:05.517Z,98742.44
2023-06-21T08:21:11.304Z,98744.25
2023-06-21T08:26:20.171Z,98748.94
2023-06-21T08:31:25.487Z,98760.00
2023-06-21T08:36:30.620Z,98753.66
2023-06-21T08:41:39.770Z,98760.56
2023-06-21T08:46:47.012Z,98752.66
2023-06-21T08:51:53.678Z,98754.22
2023-06-21T08:57:07.151Z,98771.50
2023-06-21T09:02:25.984Z,98771.78
2023-06-21T09:07:32.499Z,98770.31
2023-06-21T09:12:43.252Z,98778.19
2023-06-21T09:17:51.201Z,98772.22
2023-06-21T09:22:56.508Z,98766.44
2023-06-21T09:28:04.240Z,98776.38
2023-06-21T09:33:09.748Z,98764.47
2023-06-21T09:38:26.767Z,98778.59
2023-06-21T09:43:40.623Z,98778.00
2023-06-21T09:48:50.005Z,98772.44
2023-06-21T09:54:17.957Z,98784.28
2023-06-21T09:59:26.186Z,98780.19
2023-06-21T10:04:31.592Z,98767.44
2023-06-21T10:09:39.913Z,98765.94
2023-06-21T10:14:47.921Z,98751.81
2023-06-21T10:19:57.102Z,98770.97
2023-06-21T10:25:05.379Z,98779.84
2023-06-21T10:30:17.023Z,98781.47
2023-06-21T10:35:26.424Z,98781.34
2023-06-21T10:40:33.952Z,98783.66
2023-06-21T10:45:45.605Z,98790.06
2023-06-21T10:50:51.905Z,98790.34
2023-06-21T10:55:57.610Z,98795.78
2023-06-21T11:01:05.628Z,98791.13
2023-06-21T11:06:34.290Z,98792.53
2023-06-21T11:11:51.804Z,98788.31
2023-06-21T11:17:13.898Z,98790.44
2023-06-21T11:22:22.349Z,98799.59
2023-06-21T11:27:29.612Z,98801.06
2023-06-21T11:32:41.262Z,98799.75
2023-06-21T11:37:49.362Z,98806.44
2023-06-21T11:42:54.596Z,98818.97
2023-06-21T11:48:16.954Z,98833.09
2023-06-21T11:53:25.482Z,98838.59
2023-06-21T11:58:31.461Z,98851.25
2023-06-21T12:03:47.429Z,98844.88
2023-06-21T12:09:00.763Z,98844.03
2023-06-21T12:14:07.605Z,98841.25
2023-06-21T12:19:15.383Z,98836.31
2023-06-21T12:24:31.555Z,98843.31
2023-06-21T12:29:36.814Z,98836.34
2023-06-21T12:34:45.955Z,98834.59
2023-06-21T12:39:57.515Z,98831.88
2023-06-21T12:45:03.397Z,98817.25
2023-06-21T12:50:12.242Z,98815.59
2023-06-21T12:55:20.106Z,98810.91
2023-06-21T13:00:26.201Z,98807.84
2023-06-21T13:05:34.885Z,98802.94
2023-06-21T13:10:40.137Z,98798.19
2023-06-21T13:15:45.355Z,98808.31
2023-06-21T13:20:56.561Z,98805.25
2023-06-21T13:26:02.603Z,98811.41
2023-06-21T13:31:08.661Z,98796.91
2023-06-21T13:36:16.661Z,98807.06
2023-06-21T13:41:22.184Z,98806.75
2023-06-21T13:46:30.505Z,98794.75
2023-06-21T13:51:39.626Z,98796.84
2023-06-21T13:56:47.962Z,98789.44
2023-06-21T14:01:56.110Z,98788.28
2023-06-21T14:07:08.530Z,98810.41
2023-06-21T14:12:16.037Z,98794.03
2023-06-21T14:17:22.345Z,98795.66
2023-06-21T14:22:31.763Z,98789.97
2023-06-21T14:27:37.203Z,98788.63
2023-06-21T14:32:45.332Z,98789.59
2023-06-21T14:37:55.738Z,98792.69
2023-06-21T14:43:00.948Z,98790.28
2023-06-21T14:48:07.865Z,98804.81
2023-06-21T14:53:15.714Z,98805.94
2023-06-21T14:58:21.040Z,98803.25
2023-06-21T15:03:26.271Z,98805.81
2023-06-21T15:08:36.342Z,98811.72
2023-06-21T15:13:43.910Z,98818.91
2023-06-21T15:18:49.740Z,98818.34
2023-06-21T15:23:57.389Z,98815.44
2023-06-21T15:29:03.033Z,98821.41
2023-06-21T15:34:12.447Z,98825.69
2023-06-21T15:39:20.239Z,98826.19
2023-06-21T15:44:25.765Z,98818.88
2023-06-21T15:49:33.788Z,98823.72
2023-06-21T15:54:41.671Z,98819.09
2023-06-21T15:59:49.314Z,98814.22
2023-06-21T16:04:54.624Z,98816.66
2023-06-21T16:10:02.505Z,98819.84
2023-06-21T16:15:12.202Z,98816.91
2023-06-21T16:20:17.390Z,98822.88
2023-06-21T16:25:25.508Z,98823.16
2023-06-21T16:30:30.781Z,98813.00
2023-06-21T16:35:36.793Z,98816.72
2023-06-21T16:40:44.523Z,98822.28
2023-06-21T16:45:49.917Z,98823.69
2023-06-21T16:50:57.913Z,98825.88
2023-06-21T16:56:05.612Z,98831.19
2023-06-21T17:01:12.779Z,98835.34
2023-06-21T17:06:17.895Z,98836.88
2023-06-21T17:11:27.089Z,98836.56
2023-06-21T17:16:32.788Z,98849.91
2023-06-21T17:21:37.964Z,98854.69
2023-06-21T17:26:45.801Z,98868.91
2023-06-21T17:32:00.223Z,98870.44
2023-06-21T17:37:05.957Z,98881.38
2023-06-21T17:42:13.935Z,98868.59
2023-06-21T17:47:19.177Z,98866.03
2023-06-21T17:52:24.230Z,98866.16
2023-06-21T17:57:34.083Z,98861.41
2023-06-21T18:02:39.818Z,98864.72
2023-06-21T18:07:45.020Z,98876.69
2023-06-21T18:12:55.773Z,98866.56
2023-06-21T18:18:01.012Z,98870.25
2023-06-21T18:23:06.664Z,98881.69
2023-06-21T18:28:14.741Z,98880.41
2023-06-21T18:33:19.946Z,98890.59
2023-06-21T18:38:27.250Z,98888.53
2023-06-21T18:43:36.558Z,98891.81
2023-06-21T18:48:41.996Z,98884.50
2023-06-21T18:53:47.424Z,98892.53
2023-06-21T18:58:56.441Z,98900.81
2023-06-21T19:04:04.234Z,98902.88
2023-06-21T19:09:09.897Z,98921.03
2023-06-21T19:14:17.621Z,98942.19
2023-06-21T19:19:22.803Z,98944.91
2023-06-21T19:24:31.821Z,98957.25
2023-06-21T19:29:39.895Z,98968.19
2023-06-21T19:34:46.712Z,98974.97
2023-06-21T19:39:51.946Z,98982.44
2023-06-21T19:44:59.630Z,98977.69
2023-06-21T19:50:05.176Z,98990.47
2023-06-21T19:55:11.966Z,99002.41
2023-06-21T20:00:23.307Z,99000.25
2023-06-21T20:05:28.614Z,99001.31
2023-06-21T20:10:33.702Z,98997.25
2023-06-21T20:15:46.226Z,99002.75
2023-06-21T20:20:52.636Z,99011.94
2023-06-21T20:25:58.056Z,99009.69
2023-06-21T20:31:07.673Z,99007.97
2023-06-21T20:36:15.834Z,99017.03
2023-06-21T20:41:21.136Z,99012.00
2023-06-21T20:46:30.134Z,99004.28
2023-06-21T20:51:35.435Z,99009.72
2023-06-21T20:56:40.718Z,99011.25
2023-06-21T21:01:52.643Z,99020.53
2023-06-21T21:07:02.693Z,99017.91
2023-06-21T21:12:09.788Z,99020.22
2023-06-21T21:17:18.645Z,99027.44
2023-06-21T21:22:26.147Z,99028.16
2023-06-21T21:27:39.024Z,99031.31
2023-06-21T21:32:46.778Z,99041.09
2023-06-21T21:37:54.420Z,99025.63
2023-06-21T21:43:00.162Z,99035.09
2023-06-21T21:48:11.590Z,99033.81
2023-06-21T21:53:17.845Z,99041.22
2023-06-21T21:58:25.253Z,99036.53
2023-06-21T22:03:33.912Z,99038.00
2023-06-21T22:08:39.164Z,99052.13
2023-06-21T22:13:49.250Z,99048.06
2023-06-21T22:18:58.511Z,99055.03
2023-06-21T22:24:03.928Z,99046.94
2023-06-21T22:29:13.192Z,99039.00
2023-06-21T22:34:25.127Z,99045.91
2023-06-21T22:39:32.329Z,99059.88
2023-06-21T22:44:37.573Z,99048.84
2023-06-21T22:49:45.887Z,99040.97
2023-06-21T22:54:51.093Z,99047.28
2023-06-21T22:59:56.444Z,99049.41
2023-06-21T23:05:04.588Z,99035.78
2023-06-21T23:10:12.313Z,99046.63
2023-06-21T23:15:20.497Z,99049.41
2023-06-21T23:20:34.787Z,99057.94
2023-06-21T23:25:42.247Z,99055.56
2023-06-21T23:30:47.345Z,99059.56
2023-06-21T23:36:03.630Z,99058.41
2023-06-21T23:41:10.747Z,99056.75
2023-06-21T23:46:16.129Z,99059.25
2023-06-21T23:51:23.924Z,99049.09
2023-06-21T23:56:29.944Z,99051.78
